Nearby METAR Reports

 

KPAE - Everett, Washington, USA
Distance from station: NW 15mi, 25km
Updated: 10/23/2017 4:53pm
Overcast
Overcast
 Wind from WSW
Wind: WSW 5 mph , 7 km/h
Temperature: 61°F , 16°C
Dew Point: 46°F , 8°C
Humidity: 59%
Barometer: 30.63 inHg , 1037.3 hPa
Clouds: Overcast
Visibility: 10 miles , 16 km
Cloud details: Overcast 7500 ft
2017/10/23 23:53 KPAE 232353Z 24004KT 10SM OVC075 16/08 A3063 RMK AO2 SLP374 T01560078 10178 20128 55001
KBFI - Seattle/Boeing, Washington, USA
Distance from station: SW 20mi, 31km
Updated: 10/23/2017 4:53pm

 
Barometer: 30.61 inHg , 1036.6 hPa
2017/10/23 23:53 KBFI 232353Z A3061 RMK AO2 SLP367 55003 $
KSEA - Seattle/Metro, Washington, USA
Distance from station: SSW 25mi, 41km
Updated: 10/23/2017 4:53pm
Mostly cloudy
Mostly cloudy
 Wind from WNW
Wind: WNW 3 mph , 6 km/h
Temperature: 63°F , 17°C
Dew Point: 48°F , 9°C
Humidity: 59%
Barometer: 30.62 inHg , 1036.9 hPa
Clouds: Mostly cloudy
Visibility: 10 miles , 16 km
Cloud details: Mostly cloudy 7500 ft
2017/10/23 23:53 KSEA 232353Z 29003KT 10SM BKN075 17/09 A3062 RMK AO2 SLP375 T01720094 10183 20139 57003 $
 
KAWO - Arlington Muni, Washington, USA
Distance from station: NNW 28mi, 46km
Updated: 10/23/2017 4:56pm
Overcast
Overcast
 Wind from NNE
Wind: NNE 9 mph , 15 km/h
Temperature: 63°F , 17°C
Dew Point: 48°F , 9°C
Humidity: 59%
Barometer: 30.63 inHg , 1037.3 hPa
Clouds: Overcast
Visibility: 10 miles , 16 km
Cloud details: Partly cloudy 7000 ft
Overcast 8500 ft
2017/10/23 23:56 KAWO 232356Z AUTO 02008KT 10SM SCT070 OVC085 17/09 A3063 RMK AO2 SLP376 T01670089 10183 20122 55002
KPWT - Bremerton Ntnl, Washington, USA
Distance from station: WSW 38mi, 61km
Updated: 10/23/2017 4:56pm
Clear
Clear
 Wind from SSW
Wind: SSW 3 mph , 6 km/h
Temperature: 61°F , 16°C
Dew Point: 46°F , 8°C
Humidity: 59%
Barometer: 30.62 inHg , 1036.9 hPa
Clouds: Clear
Visibility: 10 miles , 16 km
2017/10/23 23:56 KPWT 232356Z AUTO 21003KT 10SM CLR 16/08 A3062 RMK AO2 SLP388 T01560078 10172 20133 55001
KTIW - Tacoma, Washington, USA
Distance from station: SW 43mi, 69km
Updated: 10/23/2017 4:53pm
Partly cloudy
Partly cloudy
 Wind from N
Wind: N 3 mph , 6 km/h
Temperature: 63°F , 17°C
Dew Point: 45°F , 7°C
Humidity: 52%
Barometer: 30.62 inHg , 1036.9 hPa
Clouds: Partly cloudy
Visibility: 10 miles , 16 km
Cloud details: Partly cloudy 9000 ft
2017/10/23 23:53 KTIW 232353Z 01003KT 10SM SCT090 17/07 A3062 RMK AO2 SLP368 T01670067 10172 20128 56006
 
KPLU - Puyallup/Thun, Washington, USA
Distance from station: SSW 47mi, 76km
Updated: 10/23/2017 5:15pm
Partly cloudy
Partly cloudy
 Wind from calm
Wind: Calm
Temperature: 64°F , 18°C
Dew Point: 48°F , 9°C
Humidity: 56%
Barometer: 30.61 inHg , 1036.6 hPa
Clouds: Partly cloudy
Visibility: 10 miles , 16 km
Cloud details: Partly cloudy 8000 ft
2017/10/24 00:15 KPLU 240015Z AUTO 00000KT 10SM SCT080 18/09 A3061 RMK AO2
KSMP - Stampede Pass, Washington, USA
Distance from station: SE 47mi, 76km
Updated: 10/23/2017 4:56pm
Clear
Clear
 Wind from calm
Wind: Calm
Temperature: 46°F , 8°C
Dew Point: 39°F , 4°C
Humidity: 76%
Barometer: 30.66 inHg , 1038.3 hPa
Clouds: Clear
Visibility: 10 miles , 16 km
2017/10/23 23:56 KSMP 232356Z AUTO 00000KT 10SM CLR 08/04 A3066 RMK AO2 SLP393 T00830044 10106 20072 53003
KNUW - Whidbey Is. Nas, Washington, USA
Distance from station: NW 49mi, 79km
Updated: 10/23/2017 4:56pm
Mostly cloudy
Mostly cloudy
 Wind from N
Wind: N 3 mph , 6 km/h
Temperature: 61°F , 16°C
Dew Point: 45°F , 7°C
Humidity: 55%
Barometer: 30.66 inHg , 1038.3 hPa
Clouds: Mostly cloudy
Visibility: 10 miles , 16 km
Cloud details: Partly cloudy 3500 ft
Mostly cloudy 7000 ft
Mostly cloudy 24000 ft
2017/10/23 23:56 KNUW 232356Z 35003KT 10SM SCT035 BKN070 BKN240 16/07 A3066 RMK AO2 SLP381 T01560072 10183 20150 56003 $
 
KBVS - Burlington/Mt V, Washington, USA
Distance from station: NNW 51mi, 83km
Updated: 10/23/2017 5:15pm
Overcast
Overcast
 Wind from NNE
Wind: NNE 5 mph , 7 km/h
Temperature: 61°F , 16°C
Dew Point: 48°F , 9°C
Humidity: 63%
Barometer: 30.63 inHg , 1037.3 hPa
Clouds: Overcast
Visibility: 10 miles , 16 km
Cloud details: Overcast 6500 ft
2017/10/24 00:15 KBVS 240015Z AUTO 03004KT 10SM OVC065 16/09 A3063 RMK A01
KSHN - Shelton, Washington, USA
Distance from station: SW 63mi, 101km
Updated: 10/23/2017 4:53pm
Overcast
Overcast
 Wind from E
Wind: E 3 mph , 6 km/h
Temperature: 63°F , 17°C
Dew Point: 46°F , 8°C
Humidity: 56%
Barometer: 30.59 inHg , 1035.9 hPa
Clouds: Overcast
Visibility: 10 miles , 16 km
Cloud details: Overcast 6000 ft
2017/10/23 23:53 KSHN 232353Z AUTO 08003KT 10SM OVC060 17/08 A3059 RMK AO2 SLP361 T01670078 10172 20106 56003
KOLM - Olympia, Washington, USA
Distance from station: SW 68mi, 110km
Updated: 10/23/2017 4:54pm
Clear
Clear
 Wind from N
Wind: N 3 mph , 6 km/h
Temperature: 64°F , 18°C
Dew Point: 48°F , 9°C
Humidity: 56%
Barometer: 30.60 inHg , 1036.2 hPa
Clouds: Clear
Visibility: 10 miles , 16 km
2017/10/23 23:54 KOLM 232354Z 36003KT 10SM CLR 18/09 A3060 RMK AO2 SLP361 T01830089 10189 20122 56008
 
KCLM - Port Angeles, Washington, USA
Distance from station: WNW 72mi, 115km
Updated: 10/23/2017 4:53pm
Overcast
Overcast
 Wind from N
Wind: N 3 mph , 6 km/h
Temperature: 54°F , 12°C
Dew Point: 46°F , 8°C
Humidity: 77%
Barometer: 30.62 inHg , 1036.9 hPa
Clouds: Overcast
Visibility: 10 miles , 16 km
Cloud details: Overcast 5500 ft
2017/10/23 23:53 KCLM 232353Z AUTO 01003KT 10SM OVC055 12/08 A3062 RMK AO2 SLP371 T01170083 10139 20106 55005
CWYJ - Victoria Univ, British Columbia, Canada
Distance from station: NW 75mi, 121km
Updated: 10/23/2017 5:00pm

 Wind from N
Wind: N 3 mph , 6 km/h
Temperature: 54°F , 12°C
Dew Point: 48°F , 9°C
Humidity: 82%
2017/10/24 00:00 CWYJ 240000Z AUTO 36003KT 12/09 RMK AO1 SLP373 T01220086 55001
KBLI - Bellingham, Washington, USA
Distance from station: NNW 75mi, 121km
Updated: 10/23/2017 4:53pm
Overcast
Overcast
 Wind from NNE
Wind: NNE 7 mph , 11 km/h
Temperature: 59°F , 15°C
Dew Point: 48°F , 9°C
Humidity: 68%
Barometer: 30.63 inHg , 1037.3 hPa
Clouds: Overcast
Visibility: 10 miles , 16 km
Cloud details: Overcast 6500 ft
2017/10/23 23:53 KBLI 232353Z 02006KT 10SM OVC065 15/09 A3063 RMK AO2 SLP380 T01500089 10161 20117 55002